Time;durP1;ratioP1;P1;durP2;ratioP2;P2;SDS_P1;SDS_P2;PMS_P1;PMS_P2;Temp;Humidity;BMP_temperature;BMP_pressure;BME280_temperature;BME280_humidity;BME280_pressure;Samples;Min_cycle;Max_cycle;Signal;HPM_P1;HPM_P2
2022/04/15 00:05:58;;;;;;;;;;;;;;;;;;20993299;28;19920;-63
2022/04/15 00:15:59;;;;;;;;;;;;;;;;;;20993096;28;19924;-63
2022/04/15 00:26:01;;;;;;;;;;;;;;;;;;21005358;28;19920;-66
2022/04/15 00:36:03;;;;;;;;;;;;;;;;;;21008349;28;20397;-74
2022/04/15 00:46:05;;;;;;;;;;;;;;;;;;21005085;28;20003;-71
2022/04/15 00:56:08;;;;;;;;;;;;;;;;;;21004392;28;19921;-66
2022/04/15 01:06:09;;;;;;;;;;;;;;;;;;21004001;28;19920;-79
2022/04/15 01:16:11;;;;;;;;;;;;;;;;;;21005025;28;19920;-65
2022/04/15 01:26:15;;;;;;;;;;;;;;;;;;21003150;28;19920;-66
2022/04/15 01:36:21;;;;;;;;;;;;;;;;;;21001367;28;19921;-63
2022/04/15 01:46:29;;;;;;;;;;;;;;;;;;21000509;28;20050;-64
2022/04/15 01:56:36;;;;;;;;;;;;;;;;;;21000252;28;20023;-73
2022/04/15 02:06:43;;;;;;;;;;;;;;;;;;20999019;28;19920;-73
2022/04/15 02:16:50;;;;;;;;;;;;;;;;;;20998588;28;19920;-68
2022/04/15 02:26:54;;;;;;;;;;;;;;;;;;20997672;28;19924;-67
2022/04/15 02:36:57;;;;;;;;;;;;;;;;;;20978596;28;19928;-68
2022/04/15 02:47:01;;;;;;;;;;;;;;;;;;20995577;28;20251;-73
2022/04/15 02:57:05;;;;;;;;;;;;;;;;;;20995831;28;20392;-71
2022/04/15 03:07:07;;;;;;;;;;;;;;;;;;20995184;28;20007;-66
2022/04/15 03:17:12;;;;;;;;;;;;;;;;;;20994474;28;19920;-64
2022/04/15 03:27:16;;;;;;;;;;;;;;;;;;20976812;28;19924;-63
2022/04/15 03:37:19;;;;;;;;;;;;;;;;;;20994365;28;20011;-69
2022/04/15 03:47:22;;;;;;;;;;;;;;;;;;20993494;28;19921;-66
2022/04/15 03:57:24;;;;;;;;;;;;;;;;;;20994873;28;19920;-65
2022/04/15 04:07:26;;;;;;;;;;;;;;;;;;20991142;28;19924;-66
2022/04/15 04:17:28;;;;;;;;;;;;;;;;;;21009131;28;19927;-70
2022/04/15 04:27:30;;;;;;;;;;;;;;;;;;21008920;28;19921;-72
2022/04/15 04:37:33;;;;;;;;;;;;;;;;;;21006646;28;19999;-69
2022/04/15 04:47:35;;;;;;;;;;;;;;;;;;20987315;28;20003;-70
2022/04/15 04:57:38;;;;;;;;;;;;;;;;;;21004751;28;20325;-69
2022/04/15 05:07:40;;;;;;;;;;;;;;;;;;21004939;28;19931;-61
2022/04/15 05:17:42;;;;;;;;;;;;;;;;;;21004587;28;19920;-68
2022/04/15 05:27:44;;;;;;;;;;;;;;;;;;21002189;28;19920;-69
2022/04/15 05:37:46;;;;;;;;;;;;;;;;;;21003706;28;20389;-74
2022/04/15 05:47:48;;;;;;;;;;;;;;;;;;21002703;28;19955;-67
2022/04/15 05:57:50;;;;;;;;;;;;;;;;;;21000351;28;19920;-67
2022/04/15 06:07:53;;;;;;;;;;;;;;;;;;20999843;28;20409;-65
2022/04/15 06:17:54;;;;;;;;;;;;;;;;;;21001555;28;20015;-65
2022/04/15 06:27:56;;;;;;;;;;;;;;;;;;21004955;28;19950;-63
2022/04/15 06:37:58;;;;;;;;;;;;;;;;;;21005527;28;19920;-73
2022/04/15 06:48:00;;;;;;;;;;;;;;;;;;21012738;28;19920;-67
2022/04/15 06:58:01;;;;;;;;;;;;;;;;;;21011027;28;20453;-64
2022/04/15 07:08:03;;;;;;;;;;;;;;;;;;20995307;28;19927;-66
2022/04/15 07:18:05;;;;;;;;;;;;;;;;;;20994815;28;20358;-63
2022/04/15 07:28:06;;;;;;;;;;;;;;;;;;20993867;28;20015;-67
2022/04/15 07:38:08;;;;;;;;;;;;;;;;;;21004989;28;20031;-71
2022/04/15 07:48:11;;;;;;;;;;;;;;;;;;20991970;28;19920;-69
2022/04/15 07:58:12;;;;;;;;;;;;;;;;;;21009746;28;19956;-63
2022/04/15 08:08:14;;;;;;;;;;;;;;;;;;21008644;28;19974;-67
2022/04/15 08:18:16;;;;;;;;;;;;;;;;;;21007742;28;19920;-63
2022/04/15 08:28:18;;;;;;;;;;;;;;;;;;21008050;28;19920;-64
2022/04/15 08:38:21;;;;;;;;;;;;;;;;;;21005556;28;19920;-78
2022/04/15 08:48:23;;;;;;;;;;;;;;;;;;21000612;28;19951;-63
2022/04/15 08:58:28;;;;;;;;;;;;;;;;;;21003952;28;20023;-67
2022/04/15 09:08:30;;;;;;;;;;;;;;;;;;21000971;28;19939;-68
2022/04/15 09:18:32;;;;;;;;;;;;;;;;;;21000880;28;19920;-64
2022/04/15 09:28:37;;;;;;;;;;;;;;;;;;21000495;28;19966;-65
2022/04/15 09:38:39;;;;;;;;;;;;;;;;;;20957668;28;1212110;-66
2022/04/15 09:48:41;;;;;;;;;;;;;;;;;;21002094;28;19920;-63
2022/04/15 09:58:43;;;;;;;;;;;;;;;;;;21000218;28;19927;-70
2022/04/15 10:08:45;;;;;;;;;;;;;;;;;;21000327;28;20374;-63
2022/04/15 10:18:47;;;;;;;;;;;;;;;;;;20999627;28;20017;-75
2022/04/15 10:28:49;;;;;;;;;;;;;;;;;;20997871;28;20286;-66
2022/04/15 10:38:51;;;;;;;;;;;;;;;;;;20996516;28;19920;-69
2022/04/15 10:48:54;;;;;;;;;;;;;;;;;;20981000;28;19924;-65
2022/04/15 11:09:17;;;;;;;;;;;;;;;;;;20996589;28;19920;-64
2022/04/15 11:19:18;;;;;;;;;;;;;;;;;;20997266;28;19927;-64
2022/04/15 11:29:20;;;;;;;;;;;;;;;;;;20996411;28;19920;-66
2022/04/15 11:39:22;;;;;;;;;;;;;;;;;;20994112;28;19927;-65
2022/04/15 11:49:26;;;;;;;;;;;;;;;;;;20993116;28;19920;-65
2022/04/15 11:59:27;;;;;;;;;;;;;;;;;;20992583;28;19924;-66
2022/04/15 12:09:29;;;;;;;;;;;;;;;;;;20992642;28;19920;-68
2022/04/15 12:19:32;;;;;;;;;;;;;;;;;;20996378;28;20317;-68
2022/04/15 12:29:52;;;;;;;;;;;;;;;;;;21007480;28;19920;-69
2022/04/15 12:39:55;;;;;;;;;;;;;;;;;;21008202;28;19960;-65
2022/04/15 12:49:57;;;;;;;;;;;;;;;;;;21009534;28;19924;-67
2022/04/15 12:59:59;;;;;;;;;;;;;;;;;;21009537;28;19996;-64
2022/04/15 13:10:02;;;;;;;;;;;;;;;;;;21005090;28;19921;-67
2022/04/15 13:20:04;;;;;;;;;;;;;;;;;;20985626;28;20267;-70
2022/04/15 13:30:09;;;;;;;;;;;;;;;;;;21004253;28;20007;-75
2022/04/15 13:40:13;;;;;;;;;;;;;;;;;;20984193;28;19973;-76
2022/04/15 13:50:15;;;;;;;;;;;;;;;;;;21001886;28;20275;-71
2022/04/15 14:00:18;;;;;;;;;;;;;;;;;;20999594;28;19931;-68
2022/04/15 14:10:20;;;;;;;;;;;;;;;;;;20999611;28;19974;-78
2022/04/15 14:20:22;;;;;;;;;;;;;;;;;;20982679;28;20074;-72
2022/04/15 14:30:23;;;;;;;;;;;;;;;;;;21007301;28;19928;-64
2022/04/15 14:40:25;;;;;;;;;;;;;;;;;;20997775;28;20015;-71
2022/04/15 14:50:27;;;;;;;;;;;;;;;;;;20980349;28;20427;-73
2022/04/15 15:00:29;;;;;;;;;;;;;;;;;;20995799;28;19920;-69
2022/04/15 15:10:31;;;;;;;;;;;;;;;;;;20996466;28;20363;-72
2022/04/15 15:20:33;;;;;;;;;;;;;;;;;;20996854;28;20019;-72
2022/04/15 15:30:35;;;;;;;;;;;;;;;;;;20995127;28;19928;-69
2022/04/15 15:40:36;;;;;;;;;;;;;;;;;;20995139;28;19921;-74
2022/04/15 15:50:38;;;;;;;;;;;;;;;;;;20996724;28;19920;-75
2022/04/15 16:00:40;;;;;;;;;;;;;;;;;;21010715;28;20014;-65
2022/04/15 16:10:42;;;;;;;;;;;;;;;;;;21011226;28;19927;-65
2022/04/15 16:20:44;;;;;;;;;;;;;;;;;;21008849;28;19920;-75
2022/04/15 16:30:46;;;;;;;;;;;;;;;;;;21008159;28;20348;-71
2022/04/15 16:40:48;;;;;;;;;;;;;;;;;;21006385;28;20354;-73
2022/04/15 16:50:50;;;;;;;;;;;;;;;;;;21006113;28;19920;-68
2022/04/15 17:00:53;;;;;;;;;;;;;;;;;;21008848;28;20313;-65
2022/04/15 17:10:55;;;;;;;;;;;;;;;;;;21005415;28;20014;-64
2022/04/15 17:21:00;;;;;;;;;;;;;;;;;;20987202;28;19921;-74
2022/04/15 17:31:02;;;;;;;;;;;;;;;;;;21002966;28;19965;-73
2022/04/15 17:41:04;;;;;;;;;;;;;;;;;;21001187;28;19920;-68
2022/04/15 17:51:10;;;;;;;;;;;;;;;;;;21001029;28;19927;-68
2022/04/15 18:01:12;;;;;;;;;;;;;;;;;;21000505;28;19966;-72
2022/04/15 18:11:16;;;;;;;;;;;;;;;;;;21004209;28;19921;-76
2022/04/15 18:21:20;;;;;;;;;;;;;;;;;;21003698;28;19945;-74
2022/04/15 18:31:23;;;;;;;;;;;;;;;;;;21001058;28;19989;-75
2022/04/15 18:41:25;;;;;;;;;;;;;;;;;;20997955;28;20008;-76
2022/04/15 19:01:49;;;;;;;;;;;;;;;;;;20743665;28;20003;-67
2022/04/15 19:11:51;;;;;;;;;;;;;;;;;;20784406;28;19921;-65
2022/04/15 19:21:53;;;;;;;;;;;;;;;;;;20783134;28;19933;-72
2022/04/15 19:31:55;;;;;;;;;;;;;;;;;;20801181;28;20375;-69
2022/04/15 19:41:57;;;;;;;;;;;;;;;;;;20993459;28;20282;-67
2022/04/15 19:51:59;;;;;;;;;;;;;;;;;;21010678;28;19925;-64
2022/04/15 20:02:01;;;;;;;;;;;;;;;;;;21010435;28;20432;-65
2022/04/15 20:12:04;;;;;;;;;;;;;;;;;;21009224;28;20390;-65
2022/04/15 20:22:07;;;;;;;;;;;;;;;;;;20989373;28;19921;-66
2022/04/15 20:32:09;;;;;;;;;;;;;;;;;;20989612;28;20007;-70
2022/04/15 20:42:10;;;;;;;;;;;;;;;;;;21005213;28;19994;-65
2022/04/15 20:52:12;;;;;;;;;;;;;;;;;;21005798;28;20002;-66
2022/04/15 21:02:15;;;;;;;;;;;;;;;;;;21005052;28;20336;-68
2022/04/15 21:12:17;;;;;;;;;;;;;;;;;;21004017;28;19931;-69
2022/04/15 21:22:20;;;;;;;;;;;;;;;;;;20984794;28;19927;-65
2022/04/15 21:32:22;;;;;;;;;;;;;;;;;;20984540;28;19966;-65
2022/04/15 21:42:24;;;;;;;;;;;;;;;;;;21001809;28;19921;-65
2022/04/15 21:52:33;;;;;;;;;;;;;;;;;;20999616;28;20007;-67
2022/04/15 22:02:35;;;;;;;;;;;;;;;;;;20999479;28;19935;-68
2022/04/15 22:12:38;;;;;;;;;;;;;;;;;;20999241;28;19982;-64
2022/04/15 22:22:40;;;;;;;;;;;;;;;;;;20998523;28;19920;-64
2022/04/15 22:32:41;;;;;;;;;;;;;;;;;;20998003;28;20385;-66
2022/04/15 22:42:43;;;;;;;;;;;;;;;;;;20997070;28;19922;-65
2022/04/15 22:52:45;;;;;;;;;;;;;;;;;;20996446;28;19927;-65
2022/04/15 23:02:47;;;;;;;;;;;;;;;;;;20995466;28;19920;-67
2022/04/15 23:12:48;;;;;;;;;;;;;;;;;;20996487;28;19928;-72
2022/04/15 23:22:50;;;;;;;;;;;;;;;;;;20995566;28;19943;-68
2022/04/15 23:32:53;;;;;;;;;;;;;;;;;;20994666;28;19920;-70
2022/04/15 23:42:55;;;;;;;;;;;;;;;;;;20994528;28;19974;-68
2022/04/15 23:52:57;;;;;;;;;;;;;;;;;;20994243;28;19982;-69
